createdAt,value
2022-12-08T00:04:00.789Z,19.24
2022-12-08T00:09:13.045Z,19.29
2022-12-08T00:14:06.813Z,19.39
2022-12-08T00:19:00.787Z,19.26
2022-12-08T00:23:56.821Z,19.31
2022-12-08T00:28:49.982Z,19.37
2022-12-08T00:33:42.647Z,19.39
2022-12-08T00:38:37.184Z,19.37
2022-12-08T00:43:30.657Z,19.36
2022-12-08T00:48:24.751Z,19.25
2022-12-08T00:53:17.373Z,19.36
2022-12-08T00:58:10.927Z,19.16
2022-12-08T01:03:04.723Z,19.23
2022-12-08T01:07:59.037Z,19.10
2022-12-08T01:12:52.611Z,19.37
2022-12-08T01:17:46.642Z,19.20
2022-12-08T01:22:39.946Z,19.36
2022-12-08T01:27:33.727Z,19.14
2022-12-08T01:32:27.762Z,19.36
2022-12-08T01:37:21.550Z,19.21
2022-12-08T01:42:35.408Z,19.34
2022-12-08T01:47:41.694Z,19.25
2022-12-08T01:52:43.582Z,19.26
2022-12-08T01:57:47.641Z,19.34
2022-12-08T02:02:53.023Z,19.23
2022-12-08T02:07:49.158Z,19.34
2022-12-08T02:12:44.635Z,19.33
2022-12-08T02:17:43.823Z,19.23
2022-12-08T02:22:48.853Z,19.31
2022-12-08T02:28:12.603Z,19.36
2022-12-08T02:33:33.294Z,19.34
2022-12-08T02:39:05.422Z,19.34
2022-12-08T02:44:00.915Z,19.31
2022-12-08T02:48:56.174Z,19.12
2022-12-08T02:53:49.938Z,19.20
2022-12-08T02:59:02.930Z,19.30
2022-12-08T03:04:20.687Z,19.32
2022-12-08T03:09:32.858Z,19.28
2022-12-08T03:14:26.908Z,19.23
2022-12-08T03:19:25.012Z,19.19
2022-12-08T03:24:19.343Z,19.15
2022-12-08T03:29:14.261Z,19.29
2022-12-08T03:34:11.662Z,19.29
2022-12-08T03:39:05.198Z,19.29
2022-12-08T03:44:00.411Z,19.22
2022-12-08T03:48:53.571Z,19.17
2022-12-08T03:53:47.694Z,19.29
2022-12-08T03:58:41.606Z,19.31
2022-12-08T04:03:35.138Z,19.07
2022-12-08T04:08:29.117Z,19.31
2022-12-08T04:13:22.977Z,19.18
2022-12-08T04:18:17.500Z,19.31
2022-12-08T04:23:12.173Z,19.27
2022-12-08T04:28:06.674Z,19.19
2022-12-08T04:33:00.124Z,19.28
2022-12-08T04:37:52.994Z,19.28
2022-12-08T04:42:47.057Z,19.26
2022-12-08T04:47:40.094Z,19.13
2022-12-08T04:52:34.217Z,19.14
2022-12-08T04:57:27.414Z,19.26
2022-12-08T05:02:20.599Z,19.24
2022-12-08T05:07:14.617Z,19.17
2022-12-08T05:12:09.102Z,19.27
2022-12-08T05:17:09.097Z,19.25
2022-12-08T05:22:03.374Z,19.26
2022-12-08T05:26:56.862Z,19.26
2022-12-08T05:31:50.781Z,19.12
2022-12-08T05:36:44.225Z,19.13
2022-12-08T05:41:37.918Z,19.12
2022-12-08T05:46:32.099Z,19.17
2022-12-08T05:51:25.117Z,19.14
2022-12-08T05:56:19.465Z,19.14
2022-12-08T06:01:30.837Z,19.24
2022-12-08T06:06:24.772Z,18.99
2022-12-08T06:11:31.122Z,19.08
2022-12-08T06:16:26.726Z,19.23
2022-12-08T06:21:20.735Z,19.22
2022-12-08T06:26:15.666Z,19.22
2022-12-08T06:31:11.594Z,19.20
2022-12-08T06:36:06.006Z,19.22
2022-12-08T06:41:01.182Z,19.07
2022-12-08T06:45:54.892Z,19.21
2022-12-08T06:50:48.854Z,19.21
2022-12-08T06:55:59.315Z,19.13
2022-12-08T07:00:53.521Z,19.22
2022-12-08T07:05:46.058Z,19.23
2022-12-08T07:10:39.121Z,19.22
2022-12-08T07:15:32.020Z,19.24
2022-12-08T07:20:25.616Z,19.25
2022-12-08T07:25:19.549Z,19.10
2022-12-08T07:30:14.467Z,19.09
2022-12-08T07:35:08.530Z,19.18
2022-12-08T07:40:01.484Z,19.21
2022-12-08T07:44:55.127Z,19.20
2022-12-08T07:49:48.913Z,19.20
2022-12-08T07:54:41.842Z,18.97
2022-12-08T07:59:35.864Z,19.20
2022-12-08T08:04:29.422Z,19.06
2022-12-08T08:09:22.876Z,19.20
2022-12-08T08:14:16.262Z,19.10
2022-12-08T08:19:10.161Z,19.17
2022-12-08T08:24:03.719Z,18.97
2022-12-08T08:28:57.569Z,19.04
2022-12-08T08:33:51.122Z,19.11
2022-12-08T08:38:44.477Z,19.21
2022-12-08T08:43:38.837Z,19.18
2022-12-08T08:48:33.380Z,19.09
2022-12-08T08:53:27.792Z,19.19
2022-12-08T08:58:21.225Z,19.16
2022-12-08T09:03:14.415Z,19.12
2022-12-08T09:08:07.760Z,19.12
2022-12-08T09:13:00.530Z,19.21
2022-12-08T09:17:54.702Z,19.18
2022-12-08T09:22:47.836Z,19.04
2022-12-08T09:27:41.673Z,19.17
2022-12-08T09:32:35.779Z,19.06
2022-12-08T09:37:29.519Z,19.05
2022-12-08T09:42:43.722Z,19.18
2022-12-08T09:47:41.956Z,19.04
2022-12-08T09:52:42.397Z,19.03
2022-12-08T09:57:37.234Z,19.15
2022-12-08T10:02:31.217Z,19.05
2022-12-08T10:07:28.629Z,19.15
2022-12-08T10:12:34.718Z,19.04
2022-12-08T10:17:34.983Z,19.08
2022-12-08T10:22:35.315Z,19.18
2022-12-08T10:27:34.302Z,19.15
2022-12-08T10:32:35.198Z,19.18
2022-12-08T10:37:28.834Z,19.17
2022-12-08T10:42:23.122Z,19.11
2022-12-08T10:47:17.209Z,19.17
2022-12-08T10:52:24.079Z,18.93
2022-12-08T10:57:29.230Z,18.91
2022-12-08T11:02:23.155Z,19.03
2022-12-08T11:07:23.286Z,19.14
2022-12-08T11:12:22.673Z,19.02
2022-12-08T11:17:21.961Z,19.14
2022-12-08T11:22:25.360Z,19.16
2022-12-08T11:27:19.460Z,19.15
2022-12-08T11:32:14.560Z,19.09
2022-12-08T11:37:14.622Z,19.06
2022-12-08T11:42:13.936Z,19.13
2022-12-08T11:47:38.048Z,19.16
2022-12-08T11:52:36.041Z,19.05
2022-12-08T11:57:30.349Z,18.99
2022-12-08T12:02:26.393Z,19.15
2022-12-08T12:07:31.201Z,19.17
2022-12-08T12:12:39.854Z,19.15
2022-12-08T12:17:45.606Z,19.17
2022-12-08T12:22:39.633Z,19.15
2022-12-08T12:27:41.166Z,19.05
2022-12-08T12:32:59.168Z,19.13
2022-12-08T12:37:57.521Z,19.14
2022-12-08T12:42:56.946Z,19.14
2022-12-08T12:47:57.463Z,19.12
2022-12-08T12:52:51.054Z,19.03
2022-12-08T12:57:56.545Z,19.03
2022-12-08T13:02:52.917Z,19.07
2022-12-08T13:08:00.697Z,19.00
2022-12-08T13:13:17.222Z,19.14
2022-12-08T13:18:27.177Z,19.00
2022-12-08T13:23:37.486Z,19.13
2022-12-08T13:28:31.955Z,19.01
2022-12-08T13:33:41.482Z,19.17
2022-12-08T13:38:38.234Z,19.19
2022-12-08T13:44:31.204Z,18.93
2022-12-08T13:50:54.879Z,19.17
2022-12-08T13:56:05.419Z,19.14
2022-12-08T13:59:54.059Z,19.07
2022-12-08T14:05:17.306Z,18.93
2022-12-08T14:10:02.350Z,19.00
2022-12-08T14:15:05.253Z,19.11
2022-12-08T14:19:59.989Z,19.17
2022-12-08T14:24:55.732Z,19.03
2022-12-08T14:29:57.610Z,19.16
2022-12-08T14:35:01.461Z,19.13
2022-12-08T14:40:05.615Z,19.15
2022-12-08T14:45:03.634Z,19.07
2022-12-08T14:49:57.040Z,19.14
2022-12-08T14:54:51.637Z,19.09
2022-12-08T14:59:47.341Z,19.18
2022-12-08T15:04:43.807Z,19.18
2022-12-08T15:09:40.509Z,19.18
2022-12-08T15:14:37.645Z,19.11
2022-12-08T15:19:35.057Z,19.07
2022-12-08T15:24:30.798Z,19.10
2022-12-08T15:29:30.696Z,19.05
2022-12-08T15:34:23.323Z,19.15
2022-12-08T15:39:21.457Z,19.03
2022-12-08T15:44:14.776Z,19.07
2022-12-08T15:49:23.046Z,19.21
2022-12-08T15:54:17.022Z,19.15
2022-12-08T15:59:19.610Z,19.15
2022-12-08T16:09:34.370Z,19.19
2022-12-08T16:19:41.923Z,19.17
2022-12-08T16:24:35.795Z,19.19
2022-12-08T16:29:30.233Z,19.17
2022-12-08T16:34:25.145Z,19.09
2022-12-08T16:39:18.942Z,19.23
2022-12-08T16:44:12.420Z,19.21
2022-12-08T16:49:09.014Z,19.22
2022-12-08T16:54:03.182Z,19.25
2022-12-08T16:58:57.258Z,19.22
2022-12-08T17:04:22.364Z,19.22
2022-12-08T17:09:05.390Z,19.12
2022-12-08T17:13:59.650Z,19.20
2022-12-08T17:19:13.363Z,19.07
2022-12-08T17:24:08.041Z,19.23
2022-12-08T17:29:03.521Z,19.21
2022-12-08T17:33:59.465Z,19.22
2022-12-08T17:38:52.855Z,19.15
2022-12-08T17:43:46.742Z,19.23
2022-12-08T17:48:40.565Z,19.12
2022-12-08T17:53:37.527Z,19.15
2022-12-08T17:58:31.982Z,19.01
2022-12-08T18:03:25.713Z,19.28
2022-12-08T18:08:19.217Z,19.23
2022-12-08T18:13:13.244Z,19.16
2022-12-08T18:18:07.190Z,19.28
2022-12-08T18:23:00.815Z,19.24
2022-12-08T18:27:54.971Z,19.26
2022-12-08T18:32:50.724Z,19.25
2022-12-08T18:37:47.474Z,19.29
2022-12-08T18:42:40.954Z,19.19
2022-12-08T18:47:36.259Z,19.27
2022-12-08T18:52:32.313Z,19.27
2022-12-08T18:57:26.258Z,19.27
2022-12-08T19:02:20.757Z,19.30
2022-12-08T19:07:15.091Z,19.19
2022-12-08T19:12:09.344Z,19.28
2022-12-08T19:17:02.387Z,19.14
2022-12-08T19:21:56.356Z,19.27
2022-12-08T19:26:50.750Z,19.19
2022-12-08T19:31:44.674Z,19.24
2022-12-08T19:36:42.884Z,19.25
2022-12-08T19:41:56.114Z,19.28
2022-12-08T19:46:50.107Z,19.16
2022-12-08T19:51:44.040Z,19.28
2022-12-08T19:56:37.838Z,19.16
2022-12-08T20:01:31.839Z,19.15
2022-12-08T20:06:27.321Z,19.29
2022-12-08T20:11:21.823Z,19.29
2022-12-08T20:16:16.295Z,19.30
2022-12-08T20:21:11.746Z,19.23
2022-12-08T20:26:06.074Z,19.17
2022-12-08T20:30:59.501Z,19.06
2022-12-08T20:36:01.367Z,19.30
2022-12-08T20:40:55.539Z,19.33
2022-12-08T20:45:48.139Z,19.11
2022-12-08T20:50:41.800Z,19.32
2022-12-08T20:55:36.409Z,19.32
2022-12-08T21:00:29.647Z,19.10
2022-12-08T21:05:23.876Z,18.97
2022-12-08T21:10:18.012Z,18.80
2022-12-08T21:15:12.533Z,18.92
2022-12-08T21:20:08.666Z,19.00
2022-12-08T21:25:02.398Z,19.13
2022-12-08T21:29:55.868Z,19.28
2022-12-08T21:34:49.555Z,19.33
2022-12-08T21:39:43.224Z,19.31
2022-12-08T21:44:37.863Z,19.41
2022-12-08T21:49:31.140Z,19.34
2022-12-08T21:54:25.613Z,19.43
2022-12-08T21:59:21.253Z,19.32
2022-12-08T22:04:25.174Z,19.45
2022-12-08T22:09:20.534Z,19.50
2022-12-08T22:14:19.320Z,19.52
2022-12-08T22:19:19.582Z,19.46
2022-12-08T22:24:18.683Z,19.38
2022-12-08T22:29:14.859Z,19.52
2022-12-08T22:34:13.955Z,19.38
2022-12-08T22:39:15.956Z,19.40
2022-12-08T22:44:15.210Z,19.63
2022-12-08T22:49:11.210Z,19.64
2022-12-08T22:54:11.270Z,19.51
2022-12-08T22:59:11.902Z,19.68
2022-12-08T23:04:17.634Z,19.61
2022-12-08T23:09:14.564Z,19.58
2022-12-08T23:14:08.237Z,19.50
2022-12-08T23:19:03.684Z,19.44
2022-12-08T23:23:58.764Z,19.58
2022-12-08T23:28:53.297Z,19.49
2022-12-08T23:33:47.855Z,19.53
2022-12-08T23:38:41.107Z,19.66
2022-12-08T23:43:35.473Z,19.62
2022-12-08T23:48:33.512Z,19.50
2022-12-08T23:53:28.441Z,19.52
2022-12-08T23:58:22.236Z,19.62
